createdAt,value
2019-04-11T00:00:05.218Z,3.75
2019-04-11T00:01:05.965Z,3.81
2019-04-11T00:02:06.633Z,3.88
2019-04-11T00:03:06.003Z,3.75
2019-04-11T00:04:06.072Z,3.94
2019-04-11T00:05:06.381Z,3.88
2019-04-11T00:06:06.002Z,3.88
2019-04-11T00:07:05.865Z,3.81
2019-04-11T00:08:05.944Z,3.75
2019-04-11T00:09:06.062Z,3.88
2019-04-11T00:10:06.219Z,4.00
2019-04-11T00:11:05.950Z,4.19
2019-04-11T00:12:06.279Z,4.06
2019-04-11T00:13:17.022Z,4.06
2019-04-11T00:14:05.347Z,4.00
2019-04-11T00:15:06.385Z,3.94
2019-04-11T00:16:06.866Z,3.94
2019-04-11T00:17:05.765Z,3.88
2019-04-11T00:18:06.133Z,3.88
2019-04-11T00:19:05.701Z,3.75
2019-04-11T00:20:05.874Z,3.81
2019-04-11T00:21:05.072Z,3.88
2019-04-11T00:22:05.659Z,3.88
2019-04-11T00:23:06.012Z,3.69
2019-04-11T00:24:05.606Z,3.81
2019-04-11T00:25:05.769Z,3.75
2019-04-11T00:26:06.513Z,3.88
2019-04-11T00:27:06.916Z,3.81
2019-04-11T00:28:05.713Z,3.75
2019-04-11T00:29:05.910Z,3.88
2019-04-11T00:30:05.944Z,4.00
2019-04-11T00:31:06.335Z,4.00
2019-04-11T00:32:07.885Z,4.12
2019-04-11T00:33:05.685Z,4.12
2019-04-11T00:34:05.294Z,4.12
2019-04-11T00:35:05.456Z,4.12
2019-04-11T00:36:06.278Z,4.06
2019-04-11T00:37:05.769Z,4.06
2019-04-11T00:38:05.941Z,4.06
2019-04-11T00:39:05.544Z,4.00
2019-04-11T00:40:05.028Z,4.00
2019-04-11T00:41:05.827Z,3.94
2019-04-11T00:42:06.160Z,3.88
2019-04-11T00:43:05.941Z,3.94
2019-04-11T00:44:06.333Z,3.94
2019-04-11T00:45:06.003Z,3.94
2019-04-11T00:46:05.990Z,3.88
2019-04-11T00:47:06.706Z,3.88
2019-04-11T00:48:05.796Z,3.81
2019-04-11T00:49:06.189Z,3.75
2019-04-11T00:50:05.699Z,3.69
2019-04-11T00:51:05.570Z,3.56
2019-04-11T00:52:05.174Z,3.50
2019-04-11T00:53:05.601Z,3.56
2019-04-11T00:54:05.109Z,3.56
2019-04-11T00:55:07.048Z,3.56
2019-04-11T00:56:06.216Z,3.62
2019-04-11T00:57:06.534Z,3.62
2019-04-11T00:58:05.862Z,3.56
2019-04-11T00:59:05.825Z,3.56
2019-04-11T01:00:05.379Z,3.69
2019-04-11T01:01:05.790Z,3.81
2019-04-11T01:02:05.851Z,3.94
2019-04-11T01:03:06.462Z,3.94
2019-04-11T01:04:05.844Z,3.94
2019-04-11T01:05:05.818Z,4.00
2019-04-11T01:06:05.764Z,3.94
2019-04-11T01:07:05.463Z,3.88
2019-04-11T01:08:07.240Z,3.81
2019-04-11T01:09:06.280Z,3.81
2019-04-11T01:10:06.634Z,3.88
2019-04-11T01:11:05.762Z,3.81
2019-04-11T01:12:05.361Z,3.75
2019-04-11T01:13:05.552Z,3.75
2019-04-11T01:14:05.724Z,3.69
2019-04-11T01:15:05.193Z,3.62
2019-04-11T01:16:05.457Z,3.62
2019-04-11T01:17:06.586Z,3.75
2019-04-11T01:18:05.567Z,3.75
2019-04-11T01:19:06.653Z,3.69
2019-04-11T01:20:05.223Z,3.75
2019-04-11T01:21:06.189Z,3.75
2019-04-11T01:22:05.802Z,3.69
2019-04-11T01:23:05.196Z,3.56
2019-04-11T01:24:05.611Z,3.56
2019-04-11T01:25:06.309Z,3.50
2019-04-11T01:26:06.028Z,3.50
2019-04-11T01:27:05.929Z,3.44
2019-04-11T01:28:06.767Z,3.44
2019-04-11T01:29:05.202Z,3.44
2019-04-11T01:30:06.149Z,3.50
2019-04-11T01:31:05.618Z,3.50
2019-04-11T01:32:06.480Z,3.44
2019-04-11T01:33:06.633Z,3.38
2019-04-11T01:34:06.373Z,3.38
2019-04-11T01:35:05.215Z,3.50
2019-04-11T01:36:05.376Z,3.62
2019-04-11T01:37:07.125Z,3.62
2019-04-11T01:38:06.217Z,3.75
2019-04-11T01:39:05.689Z,3.69
2019-04-11T01:40:06.029Z,3.75
2019-04-11T01:41:06.574Z,3.69
2019-04-11T01:42:05.137Z,3.62
2019-04-11T01:43:05.974Z,3.56
2019-04-11T01:44:06.823Z,3.56
2019-04-11T01:45:05.780Z,3.50
2019-04-11T01:46:06.099Z,3.50
2019-04-11T01:47:05.299Z,3.38
2019-04-11T01:48:05.051Z,3.38
2019-04-11T01:49:06.079Z,3.38
2019-04-11T01:50:05.515Z,3.31
2019-04-11T01:51:07.527Z,3.25
2019-04-11T01:52:06.493Z,3.19
2019-04-11T01:53:06.807Z,3.19
2019-04-11T01:54:05.703Z,3.00
2019-04-11T01:55:05.312Z,3.12
2019-04-11T01:56:05.588Z,3.06
2019-04-11T01:57:05.790Z,3.00
2019-04-11T01:58:06.626Z,2.94
2019-04-11T01:59:05.056Z,3.00
2019-04-11T02:00:05.992Z,3.00
2019-04-11T02:01:06.343Z,2.94
2019-04-11T02:02:07.465Z,2.94
2019-04-11T02:03:06.704Z,2.94
2019-04-11T02:04:05.996Z,2.94
2019-04-11T02:05:05.359Z,3.12
2019-04-11T02:06:05.667Z,3.06
2019-04-11T02:07:05.129Z,3.00
2019-04-11T02:08:05.125Z,2.94
2019-04-11T02:09:06.031Z,2.81
2019-04-11T02:10:05.450Z,2.75
2019-04-11T02:11:06.665Z,2.62
2019-04-11T02:12:05.827Z,2.69
2019-04-11T02:13:05.816Z,2.69
2019-04-11T02:14:10.304Z,2.69
2019-04-11T02:15:06.083Z,2.69
2019-04-11T02:16:05.759Z,2.62
2019-04-11T02:17:06.379Z,2.62
2019-04-11T02:18:05.942Z,2.62
2019-04-11T02:19:05.464Z,2.69
2019-04-11T02:20:05.394Z,2.62
2019-04-11T02:21:05.854Z,2.62
2019-04-11T02:22:06.286Z,2.62
2019-04-11T02:23:06.731Z,2.56
2019-04-11T02:24:05.773Z,2.56
2019-04-11T02:25:05.979Z,2.56
2019-04-11T02:26:05.691Z,2.56
2019-04-11T02:27:06.485Z,2.56
2019-04-11T02:28:05.075Z,2.56
2019-04-11T02:29:05.506Z,2.56
2019-04-11T02:30:05.058Z,2.50
2019-04-11T02:31:06.977Z,2.56
2019-04-11T02:32:05.596Z,2.75
2019-04-11T02:33:07.154Z,2.75
2019-04-11T02:34:06.357Z,2.81
2019-04-11T02:35:07.502Z,2.75
2019-04-11T02:36:07.313Z,2.75
2019-04-11T02:37:06.982Z,2.69
2019-04-11T02:38:07.328Z,2.69
2019-04-11T02:39:09.691Z,2.62
2019-04-11T02:40:07.464Z,2.69
2019-04-11T02:41:06.394Z,2.69
2019-04-11T02:42:06.507Z,2.62
2019-04-11T02:43:07.175Z,2.56
2019-04-11T02:44:05.875Z,2.50
2019-04-11T02:45:19.492Z,2.50
2019-04-11T02:46:11.250Z,2.50
2019-04-11T02:47:09.334Z,2.38
2019-04-11T02:48:05.833Z,2.38
2019-04-11T02:49:05.935Z,2.62
2019-04-11T02:50:05.793Z,2.75
2019-04-11T02:51:07.438Z,2.81
2019-04-11T02:52:05.035Z,2.88
2019-04-11T02:53:06.815Z,2.69
2019-04-11T02:54:06.879Z,2.81
2019-04-11T02:55:05.755Z,2.88
2019-04-11T02:56:06.210Z,2.69
2019-04-11T02:57:07.535Z,2.62
2019-04-11T02:58:06.061Z,2.81
2019-04-11T02:59:05.415Z,2.88
2019-04-11T03:00:06.371Z,2.88
2019-04-11T03:01:07.400Z,2.81
2019-04-11T03:02:06.972Z,2.81
2019-04-11T03:03:07.520Z,2.75
2019-04-11T03:04:07.166Z,2.81
2019-04-11T03:05:07.006Z,2.81
2019-04-11T03:06:06.653Z,2.75
2019-04-11T03:07:05.821Z,3.06
2019-04-11T03:08:07.690Z,3.00
2019-04-11T03:09:06.993Z,3.12
2019-04-11T03:10:06.750Z,3.06
2019-04-11T03:11:05.946Z,3.12
2019-04-11T03:12:07.367Z,3.00
2019-04-11T03:13:05.432Z,2.88
2019-04-11T03:14:07.443Z,2.81
2019-04-11T03:15:23.801Z,2.81
2019-04-11T03:16:20.047Z,2.62
2019-04-11T03:17:12.730Z,2.75
2019-04-11T03:18:09.090Z,2.88
2019-04-11T03:19:20.764Z,2.88
2019-04-11T03:20:15.240Z,2.94
2019-04-11T03:21:11.015Z,3.00
2019-04-11T03:22:05.547Z,2.81
2019-04-11T03:23:07.589Z,2.75
2019-04-11T03:24:07.944Z,2.75
2019-04-11T03:25:05.488Z,2.69
2019-04-11T03:26:07.333Z,2.94
2019-04-11T03:27:07.660Z,3.00
2019-04-11T03:28:07.772Z,3.00
2019-04-11T03:29:06.369Z,3.00
2019-04-11T03:30:07.769Z,3.00
2019-04-11T03:31:41.407Z,3.00
2019-04-11T03:32:48.170Z,2.94
2019-04-11T03:36:59.734Z,2.69
2019-04-11T03:37:25.704Z,2.81
2019-04-11T03:38:29.165Z,2.94
2019-04-11T03:39:27.576Z,2.88
2019-04-11T03:41:23.310Z,2.56
2019-04-11T03:42:20.115Z,2.50
2019-04-11T03:43:14.976Z,2.38
2019-04-11T03:44:14.285Z,2.19
2019-04-11T03:45:25.215Z,2.19
2019-04-11T03:46:24.663Z,2.19
2019-04-11T03:47:15.968Z,2.19
2019-04-11T03:48:21.577Z,2.06
2019-04-11T03:49:17.609Z,2.12
2019-04-11T03:50:09.222Z,2.25
2019-04-11T03:51:08.804Z,2.25
2019-04-11T03:52:05.771Z,2.19
2019-04-11T03:53:06.995Z,2.06
2019-04-11T03:54:07.424Z,2.12
2019-04-11T03:55:07.929Z,2.00
2019-04-11T03:56:05.238Z,2.00
2019-04-11T03:57:05.597Z,2.00
2019-04-11T03:58:06.132Z,1.94
2019-04-11T03:59:06.124Z,1.88
2019-04-11T04:00:06.284Z,1.88
2019-04-11T04:01:08.304Z,1.94
2019-04-11T04:02:07.374Z,1.88
2019-04-11T04:03:06.135Z,1.75
2019-04-11T04:04:06.590Z,1.81
2019-04-11T04:05:06.553Z,1.88
2019-04-11T04:06:06.815Z,1.81
2019-04-11T04:07:06.830Z,1.75
2019-04-11T04:08:06.086Z,1.75
2019-04-11T04:09:06.586Z,1.81
2019-04-11T04:10:07.293Z,1.88
2019-04-11T04:11:06.198Z,1.81
2019-04-11T04:12:07.095Z,1.75
2019-04-11T04:13:07.720Z,1.75
2019-04-11T04:14:05.744Z,1.75
2019-04-11T04:15:07.030Z,1.69
2019-04-11T04:16:15.139Z,1.69
2019-04-11T04:17:06.831Z,1.62
2019-04-11T04:18:05.820Z,1.69
2019-04-11T04:19:06.734Z,1.69
2019-04-11T04:20:06.383Z,1.56
2019-04-11T04:21:06.908Z,1.56
2019-04-11T04:22:07.221Z,1.94
2019-04-11T04:23:07.015Z,2.00
2019-04-11T04:24:06.172Z,1.94
2019-04-11T04:25:05.994Z,1.94
2019-04-11T04:26:07.752Z,2.00
2019-04-11T04:27:07.555Z,2.56
2019-04-11T04:28:05.774Z,2.69
2019-04-11T04:29:07.481Z,2.69
2019-04-11T04:30:06.045Z,2.62
2019-04-11T04:31:06.871Z,2.62
2019-04-11T04:32:07.685Z,2.56
2019-04-11T04:33:07.088Z,2.44
2019-04-11T04:34:05.267Z,2.44
2019-04-11T04:35:08.946Z,2.62
2019-04-11T04:36:08.025Z,2.81
2019-04-11T04:37:07.457Z,3.06
2019-04-11T04:38:07.279Z,3.12
2019-04-11T04:39:05.829Z,3.06
2019-04-11T04:40:23.209Z,3.19
2019-04-11T04:41:14.629Z,3.31
2019-04-11T04:42:11.017Z,3.44
2019-04-11T04:43:07.562Z,3.19
2019-04-11T04:44:06.445Z,2.94
2019-04-11T04:45:07.359Z,2.75
2019-04-11T04:46:22.949Z,2.62
2019-04-11T04:47:13.527Z,2.62
2019-04-11T04:48:10.711Z,2.88
2019-04-11T04:49:06.732Z,3.06
2019-04-11T04:50:06.350Z,3.19
2019-04-11T04:51:09.052Z,3.31
2019-04-11T04:52:06.052Z,3.56
2019-04-11T04:53:05.378Z,3.50
2019-04-11T04:54:05.938Z,3.50
2019-04-11T04:55:06.091Z,3.50
2019-04-11T04:56:06.716Z,3.38
2019-04-11T04:57:07.117Z,3.25
2019-04-11T04:58:07.197Z,3.31
2019-04-11T04:59:07.018Z,3.38
2019-04-11T05:00:07.085Z,3.50
2019-04-11T05:01:06.793Z,3.50
2019-04-11T05:02:06.533Z,3.44
2019-04-11T05:03:05.553Z,3.38
2019-04-11T05:04:06.773Z,3.31
2019-04-11T05:05:06.391Z,3.50
2019-04-11T05:06:05.859Z,4.00
2019-04-11T05:07:07.272Z,4.12
2019-04-11T05:08:06.101Z,4.31
2019-04-11T05:09:06.524Z,4.31
2019-04-11T05:10:07.092Z,4.12
2019-04-11T05:11:07.499Z,4.19
2019-04-11T05:12:06.137Z,4.25
2019-04-11T05:13:05.705Z,4.44
2019-04-11T05:14:07.130Z,4.69
2019-04-11T05:15:05.737Z,4.94
2019-04-11T05:16:15.043Z,5.12
2019-04-11T05:17:06.599Z,5.12
2019-04-11T05:18:06.181Z,5.75
2019-04-11T05:19:06.574Z,6.12
2019-04-11T05:20:05.135Z,6.50
2019-04-11T05:21:05.808Z,6.75
2019-04-11T05:22:06.230Z,7.25
2019-04-11T05:23:06.325Z,7.56
2019-04-11T05:24:06.203Z,7.81
2019-04-11T05:25:06.711Z,7.75
2019-04-11T05:26:05.281Z,7.75
2019-04-11T05:27:06.226Z,7.81
2019-04-11T05:28:06.492Z,7.62
2019-04-11T05:29:05.058Z,7.44
2019-04-11T05:30:06.965Z,7.69
2019-04-11T05:31:06.007Z,8.25
2019-04-11T05:32:05.594Z,8.69
2019-04-11T05:33:06.028Z,9.06
2019-04-11T05:34:05.668Z,9.44
2019-04-11T05:35:05.304Z,9.62
2019-04-11T05:36:05.982Z,10.00
2019-04-11T05:37:06.805Z,10.25
2019-04-11T05:38:06.010Z,9.56
2019-04-11T05:39:05.150Z,8.88
2019-04-11T05:40:05.369Z,8.25
2019-04-11T05:41:09.413Z,7.62
2019-04-11T05:42:07.056Z,7.38
2019-04-11T05:43:05.958Z,7.62
2019-04-11T05:44:09.866Z,7.19
2019-04-11T05:45:08.475Z,7.00
2019-04-11T05:46:23.044Z,7.19
2019-04-11T05:47:06.833Z,7.56
2019-04-11T05:48:05.744Z,7.38
2019-04-11T05:49:05.440Z,7.06
2019-04-11T05:50:09.116Z,6.75
2019-04-11T05:51:06.791Z,6.75
2019-04-11T05:52:06.045Z,6.56
2019-04-11T05:53:05.955Z,6.25
2019-04-11T05:54:07.527Z,6.12
2019-04-11T05:55:08.190Z,6.06
2019-04-11T05:56:05.520Z,6.19
2019-04-11T05:57:06.942Z,6.44
2019-04-11T05:58:07.735Z,6.38
2019-04-11T05:59:05.854Z,6.31
2019-04-11T06:00:05.995Z,6.25
2019-04-11T06:01:05.391Z,6.06
2019-04-11T06:02:07.571Z,6.06
2019-04-11T06:03:05.793Z,6.00
2019-04-11T06:04:05.916Z,5.94
2019-04-11T06:05:06.750Z,5.75
2019-04-11T06:06:06.507Z,5.69
2019-04-11T06:07:07.815Z,5.69
2019-04-11T06:08:06.245Z,5.69
2019-04-11T06:09:06.874Z,5.69
2019-04-11T06:10:08.350Z,5.69
2019-04-11T06:11:06.314Z,5.56
2019-04-11T06:12:05.857Z,5.31
2019-04-11T06:13:05.307Z,5.19
2019-04-11T06:14:05.826Z,5.12
2019-04-11T06:15:05.993Z,5.06
2019-04-11T06:16:06.333Z,5.12
2019-04-11T06:17:05.728Z,5.19
2019-04-11T06:18:06.931Z,5.12
2019-04-11T06:19:06.007Z,5.12
2019-04-11T06:20:06.109Z,5.00
2019-04-11T06:21:05.766Z,5.12
2019-04-11T06:22:05.124Z,5.06
2019-04-11T06:23:06.549Z,4.88
2019-04-11T06:24:06.000Z,4.88
2019-04-11T06:25:06.595Z,4.81
2019-04-11T06:26:06.596Z,4.88
2019-04-11T06:27:06.732Z,5.00
2019-04-11T06:28:06.255Z,5.00
2019-04-11T06:29:15.279Z,4.94
2019-04-11T06:30:05.536Z,4.94
2019-04-11T06:31:06.047Z,5.12
2019-04-11T06:32:05.783Z,5.19
2019-04-11T06:33:05.220Z,5.06
2019-04-11T06:34:05.435Z,5.06
2019-04-11T06:35:06.088Z,5.12
2019-04-11T06:36:05.687Z,5.12
2019-04-11T06:37:05.627Z,5.00
2019-04-11T06:38:06.029Z,4.88
2019-04-11T06:39:05.448Z,4.94
2019-04-11T06:40:05.843Z,4.88
2019-04-11T06:41:06.249Z,4.75
2019-04-11T06:42:05.891Z,4.62
2019-04-11T06:43:05.933Z,5.00
2019-04-11T06:44:05.432Z,5.31
2019-04-11T06:45:06.149Z,5.50
2019-04-11T06:46:06.779Z,5.44
2019-04-11T06:47:05.547Z,5.50
2019-04-11T06:48:05.955Z,5.50
2019-04-11T06:49:06.270Z,5.62
2019-04-11T06:50:06.888Z,5.69
2019-04-11T06:51:05.981Z,5.56
2019-04-11T06:52:05.434Z,5.56
2019-04-11T06:53:07.340Z,5.62
2019-04-11T06:54:05.082Z,5.50
2019-04-11T06:55:06.654Z,5.31
2019-04-11T06:56:05.284Z,5.31
2019-04-11T06:57:05.582Z,5.25
2019-04-11T06:58:06.743Z,5.19
2019-04-11T06:59:05.284Z,5.12
2019-04-11T07:00:05.549Z,5.12
2019-04-11T07:01:05.491Z,5.12
2019-04-11T07:02:11.402Z,5.06
2019-04-11T07:03:05.569Z,5.00
2019-04-11T07:04:06.012Z,5.25
2019-04-11T07:05:06.334Z,5.25
2019-04-11T07:06:06.700Z,5.19
2019-04-11T07:07:06.475Z,5.12
2019-04-11T07:08:06.007Z,5.12
2019-04-11T07:09:05.479Z,5.31
2019-04-11T07:10:06.196Z,5.38
2019-04-11T07:11:05.944Z,5.56
2019-04-11T07:12:05.998Z,5.81
2019-04-11T07:13:06.176Z,5.69
2019-04-11T07:14:06.083Z,5.56
2019-04-11T07:15:06.616Z,5.50
2019-04-11T07:16:05.692Z,5.50
2019-04-11T07:17:07.469Z,5.38
2019-04-11T07:18:07.542Z,5.50
2019-04-11T07:19:05.237Z,5.50
2019-04-11T07:20:06.601Z,5.62
2019-04-11T07:21:06.303Z,5.62
2019-04-11T07:22:06.826Z,5.56
2019-04-11T07:23:05.858Z,5.56
2019-04-11T07:24:07.405Z,5.50
2019-04-11T07:25:06.034Z,5.56
2019-04-11T07:26:05.692Z,5.56
2019-04-11T07:27:06.003Z,5.44
2019-04-11T07:28:05.648Z,5.50
2019-04-11T07:29:06.503Z,5.62
2019-04-11T07:30:05.684Z,5.88
2019-04-11T07:31:05.127Z,5.88
2019-04-11T07:32:05.224Z,5.88
2019-04-11T07:33:06.009Z,5.88
2019-04-11T07:34:06.191Z,5.88
2019-04-11T07:35:05.292Z,5.88
2019-04-11T07:36:06.009Z,5.94
2019-04-11T07:37:06.801Z,5.94
2019-04-11T07:38:05.407Z,5.81
2019-04-11T07:39:05.689Z,5.75
2019-04-11T07:40:05.799Z,6.00
2019-04-11T07:41:06.558Z,6.12
2019-04-11T07:42:07.030Z,6.25
2019-04-11T07:43:08.684Z,6.31
2019-04-11T07:44:06.346Z,6.19
2019-04-11T07:45:06.510Z,6.38
2019-04-11T07:46:05.121Z,6.31
2019-04-11T07:47:13.459Z,6.38
2019-04-11T07:48:07.020Z,6.31
2019-04-11T07:49:06.120Z,6.31
2019-04-11T07:50:05.871Z,6.44
2019-04-11T07:51:06.284Z,6.50
2019-04-11T07:52:05.305Z,6.50
2019-04-11T07:53:05.535Z,6.50
2019-04-11T07:54:05.104Z,6.62
2019-04-11T07:55:06.463Z,6.56
2019-04-11T07:56:05.363Z,6.75
2019-04-11T07:57:05.695Z,6.81
2019-04-11T07:58:06.402Z,6.88
2019-04-11T07:59:06.997Z,6.88
2019-04-11T08:00:05.981Z,6.88
2019-04-11T08:01:05.883Z,6.94
2019-04-11T08:02:05.824Z,7.12
2019-04-11T08:03:06.335Z,7.06
2019-04-11T08:04:06.004Z,7.12
2019-04-11T08:05:06.635Z,7.25
2019-04-11T08:06:05.782Z,7.38
2019-04-11T08:07:06.584Z,7.44
2019-04-11T08:08:06.639Z,7.50
2019-04-11T08:09:05.615Z,7.56
2019-04-11T08:10:05.874Z,7.69
2019-04-11T08:11:06.674Z,7.75
2019-04-11T08:12:05.220Z,7.81
2019-04-11T08:13:05.896Z,7.75
2019-04-11T08:14:06.333Z,7.69
2019-04-11T08:15:07.046Z,7.56
2019-04-11T08:16:06.353Z,7.56
2019-04-11T08:17:07.116Z,7.44
2019-04-11T08:18:05.544Z,7.38
2019-04-11T08:19:05.529Z,7.25
2019-04-11T08:20:05.136Z,7.31
2019-04-11T08:21:05.909Z,7.31
2019-04-11T08:22:06.357Z,7.31
2019-04-11T08:23:06.031Z,7.38
2019-04-11T08:24:05.791Z,7.31
2019-04-11T08:25:07.097Z,7.25
2019-04-11T08:26:06.103Z,7.31
2019-04-11T08:27:05.689Z,7.25
2019-04-11T08:28:07.528Z,7.44
2019-04-11T08:29:08.871Z,7.44
2019-04-11T08:30:06.606Z,7.44
2019-04-11T08:31:05.532Z,7.62
2019-04-11T08:32:05.217Z,8.00
2019-04-11T08:33:07.378Z,7.88
2019-04-11T08:34:06.915Z,7.94
2019-04-11T08:35:06.013Z,7.88
2019-04-11T08:36:05.616Z,7.81
2019-04-11T08:37:05.848Z,7.75
2019-04-11T08:38:06.000Z,7.69
2019-04-11T08:39:06.823Z,7.56
2019-04-11T08:40:05.840Z,7.38
2019-04-11T08:41:05.642Z,7.31
2019-04-11T08:42:05.831Z,7.31
2019-04-11T08:43:05.153Z,7.44
2019-04-11T08:44:05.824Z,7.56
2019-04-11T08:45:05.990Z,7.56
2019-04-11T08:46:06.609Z,7.56
2019-04-11T08:47:05.405Z,7.50
2019-04-11T08:48:05.483Z,7.44
2019-04-11T08:49:05.768Z,7.62
2019-04-11T08:50:06.069Z,7.75
2019-04-11T08:51:05.777Z,8.00
2019-04-11T08:52:05.542Z,8.00
2019-04-11T08:53:06.539Z,7.88
2019-04-11T08:54:05.135Z,7.94
2019-04-11T08:55:06.175Z,8.12
2019-04-11T08:56:07.021Z,8.06
2019-04-11T08:57:05.612Z,8.06
2019-04-11T08:58:06.436Z,7.94
2019-04-11T08:59:05.889Z,7.75
2019-04-11T09:00:06.192Z,7.69
2019-04-11T09:01:05.858Z,7.62
2019-04-11T09:02:06.796Z,7.50
2019-04-11T09:03:07.188Z,7.44
2019-04-11T09:04:08.995Z,7.44
2019-04-11T09:05:10.241Z,7.38
2019-04-11T09:06:06.342Z,7.38
2019-04-11T09:07:05.856Z,7.31
2019-04-11T09:08:06.010Z,7.25
2019-04-11T09:09:05.378Z,7.19
2019-04-11T09:10:05.632Z,7.25
2019-04-11T09:11:06.514Z,7.19
2019-04-11T09:12:06.437Z,7.25
2019-04-11T09:13:06.777Z,7.12
2019-04-11T09:14:06.087Z,7.06
2019-04-11T09:15:05.516Z,6.94
2019-04-11T09:16:06.010Z,6.94
2019-04-11T09:17:05.877Z,7.00
2019-04-11T09:18:08.882Z,7.19
2019-04-11T09:19:06.269Z,7.31
2019-04-11T09:20:06.025Z,7.31
2019-04-11T09:21:05.301Z,7.44
2019-04-11T09:22:05.368Z,7.56
2019-04-11T09:23:05.809Z,7.62
2019-04-11T09:24:06.160Z,7.62
2019-04-11T09:25:05.597Z,7.56
2019-04-11T09:26:05.931Z,7.56
2019-04-11T09:27:06.277Z,7.62
2019-04-11T09:28:05.591Z,7.69
2019-04-11T09:29:06.892Z,7.88
2019-04-11T09:30:06.399Z,7.81
2019-04-11T09:31:07.995Z,7.88
2019-04-11T09:32:05.438Z,7.88
2019-04-11T09:33:05.378Z,8.06
2019-04-11T09:34:05.774Z,7.94
2019-04-11T09:35:06.160Z,7.94
2019-04-11T09:36:05.883Z,8.00
2019-04-11T09:37:05.693Z,8.06
2019-04-11T09:38:06.360Z,7.94
2019-04-11T09:39:06.605Z,7.94
2019-04-11T09:40:05.770Z,7.88
2019-04-11T09:41:06.037Z,7.88
2019-04-11T09:42:05.605Z,7.75
2019-04-11T09:43:05.835Z,7.75
2019-04-11T09:44:05.051Z,7.75
2019-04-11T09:45:06.087Z,7.81
2019-04-11T09:46:06.119Z,7.94
2019-04-11T09:47:05.624Z,7.94
2019-04-11T09:48:11.530Z,8.19
2019-04-11T09:49:06.547Z,8.12
2019-04-11T09:50:05.134Z,8.06
2019-04-11T09:51:05.525Z,8.06
2019-04-11T09:52:07.277Z,8.25
2019-04-11T09:53:05.790Z,8.25
2019-04-11T09:54:05.617Z,8.12
2019-04-11T09:55:05.194Z,7.94
2019-04-11T09:56:06.834Z,8.00
2019-04-11T09:57:05.141Z,7.94
2019-04-11T09:58:05.297Z,7.88
2019-04-11T09:59:05.318Z,7.75
2019-04-11T10:00:05.899Z,7.75
2019-04-11T10:01:06.203Z,8.06
2019-04-11T10:02:05.876Z,8.00
2019-04-11T10:03:06.601Z,7.94
2019-04-11T10:04:06.440Z,7.94
2019-04-11T10:05:05.684Z,7.94
2019-04-11T10:06:07.189Z,7.94
2019-04-11T10:07:05.918Z,7.88
2019-04-11T10:08:06.385Z,7.94
2019-04-11T10:09:05.835Z,8.00
2019-04-11T10:10:05.458Z,8.31
2019-04-11T10:11:05.951Z,8.25
2019-04-11T10:12:06.510Z,8.06
2019-04-11T10:13:06.776Z,8.19
2019-04-11T10:14:05.371Z,8.12
2019-04-11T10:15:07.066Z,8.19
2019-04-11T10:16:05.704Z,8.12
2019-04-11T10:17:06.647Z,8.25
2019-04-11T10:18:05.847Z,8.06
2019-04-11T10:19:05.573Z,8.12
2019-04-11T10:20:06.482Z,8.06
2019-04-11T10:21:06.833Z,8.00
2019-04-11T10:22:05.355Z,7.81
2019-04-11T10:23:05.427Z,7.81
2019-04-11T10:24:05.600Z,7.75
2019-04-11T10:25:07.145Z,7.75
2019-04-11T10:26:05.407Z,7.75
2019-04-11T10:27:06.715Z,8.00
2019-04-11T10:28:05.521Z,8.06
2019-04-11T10:29:06.414Z,8.06
2019-04-11T10:30:06.547Z,8.06
2019-04-11T10:31:06.237Z,8.00
2019-04-11T10:32:06.661Z,8.00
2019-04-11T10:33:06.606Z,8.19
2019-04-11T10:34:06.080Z,8.19
2019-04-11T10:35:06.025Z,8.12
2019-04-11T10:36:05.606Z,8.06
2019-04-11T10:37:07.236Z,8.06
2019-04-11T10:38:06.777Z,8.06
2019-04-11T10:39:05.372Z,8.19
2019-04-11T10:40:05.982Z,8.31
2019-04-11T10:41:06.285Z,8.38
2019-04-11T10:42:06.006Z,8.50
2019-04-11T10:43:05.610Z,8.56
2019-04-11T10:44:05.586Z,8.62
2019-04-11T10:45:06.568Z,8.56
2019-04-11T10:46:07.047Z,8.50
2019-04-11T10:47:07.299Z,8.50
2019-04-11T10:48:05.465Z,8.62
2019-04-11T10:49:05.417Z,8.62
2019-04-11T10:50:06.963Z,8.62
2019-04-11T10:51:05.150Z,8.50
2019-04-11T10:52:06.448Z,8.44
2019-04-11T10:53:06.742Z,8.50
2019-04-11T10:54:07.225Z,8.50
2019-04-11T10:55:06.089Z,8.38
2019-04-11T10:56:06.319Z,8.38
2019-04-11T10:57:06.024Z,8.38
2019-04-11T10:58:05.144Z,8.31
2019-04-11T10:59:07.006Z,8.31
2019-04-11T11:00:05.384Z,8.25
2019-04-11T11:01:05.929Z,8.12
2019-04-11T11:02:06.620Z,8.12
2019-04-11T11:03:06.219Z,8.56
2019-04-11T11:04:06.014Z,8.44
2019-04-11T11:05:05.319Z,8.31
2019-04-11T11:06:05.459Z,8.19
2019-04-11T11:07:06.378Z,8.06
2019-04-11T11:08:06.678Z,8.06
2019-04-11T11:09:05.978Z,8.12
2019-04-11T11:10:05.534Z,8.19
2019-04-11T11:11:06.060Z,8.38
2019-04-11T11:12:05.853Z,8.62
2019-04-11T11:13:06.002Z,8.50
2019-04-11T11:14:05.296Z,8.44
2019-04-11T11:15:06.910Z,8.31
2019-04-11T11:16:07.361Z,8.19
2019-04-11T11:17:06.548Z,8.19
2019-04-11T11:18:33.034Z,8.19
2019-04-11T11:19:27.204Z,8.25
2019-04-11T11:20:16.260Z,8.50
2019-04-11T11:21:07.433Z,8.50
2019-04-11T11:22:06.225Z,8.56
2019-04-11T11:23:08.014Z,8.81
2019-04-11T11:24:07.136Z,9.00
2019-04-11T11:25:06.395Z,8.81
2019-04-11T11:26:06.886Z,8.69
2019-04-11T11:27:05.699Z,8.56
2019-04-11T11:28:05.511Z,8.44
2019-04-11T11:29:10.244Z,8.25
2019-04-11T11:30:06.116Z,8.12
2019-04-11T11:31:05.791Z,8.12
2019-04-11T11:32:05.254Z,8.06
2019-04-11T11:33:05.800Z,8.06
2019-04-11T11:34:05.298Z,8.00
2019-04-11T11:35:05.474Z,8.00
2019-04-11T11:36:08.929Z,8.00
2019-04-11T11:37:05.384Z,8.06
2019-04-11T11:38:05.996Z,8.06
2019-04-11T11:39:06.733Z,8.06
2019-04-11T11:40:09.209Z,8.12
2019-04-11T11:41:05.914Z,8.06
2019-04-11T11:42:06.168Z,8.12
2019-04-11T11:43:06.506Z,8.12
2019-04-11T11:44:05.595Z,8.19
2019-04-11T11:45:05.607Z,8.19
2019-04-11T11:46:05.209Z,8.31
2019-04-11T11:47:06.545Z,8.38
2019-04-11T11:48:08.756Z,8.38
2019-04-11T11:49:05.958Z,8.38
2019-04-11T11:50:06.449Z,8.38
2019-04-11T11:51:05.846Z,8.44
2019-04-11T11:52:05.446Z,8.50
2019-04-11T11:53:09.406Z,8.50
2019-04-11T11:54:05.675Z,8.56
2019-04-11T11:55:06.158Z,8.56
2019-04-11T11:56:05.775Z,8.44
2019-04-11T11:57:06.625Z,8.44
2019-04-11T11:58:06.878Z,8.44
2019-04-11T11:59:05.232Z,8.38
2019-04-11T12:00:05.361Z,8.31
2019-04-11T12:01:08.919Z,8.25
2019-04-11T12:02:06.401Z,8.25
2019-04-11T12:03:06.086Z,8.38
2019-04-11T12:04:05.153Z,8.31
2019-04-11T12:05:10.389Z,8.31
2019-04-11T12:06:05.551Z,8.38
2019-04-11T12:07:06.812Z,8.38
2019-04-11T12:08:08.687Z,8.38
2019-04-11T12:09:06.491Z,8.38
2019-04-11T12:10:05.219Z,8.38
2019-04-11T12:11:06.021Z,8.44
2019-04-11T12:12:06.450Z,8.44
2019-04-11T12:13:08.481Z,8.50
2019-04-11T12:14:07.281Z,8.69
2019-04-11T12:15:05.877Z,8.62
2019-04-11T12:16:05.766Z,8.81
2019-04-11T12:17:06.695Z,9.00
2019-04-11T12:18:07.409Z,9.00
2019-04-11T12:19:06.749Z,9.25
2019-04-11T12:20:09.619Z,9.38
2019-04-11T12:21:05.842Z,9.38
2019-04-11T12:22:06.194Z,9.31
2019-04-11T12:23:06.617Z,9.25
2019-04-11T12:24:06.382Z,9.19
2019-04-11T12:25:07.013Z,9.12
2019-04-11T12:26:05.474Z,9.00
2019-04-11T12:27:06.268Z,8.94
2019-04-11T12:28:10.054Z,8.94
2019-04-11T12:29:06.002Z,9.00
2019-04-11T12:30:07.155Z,9.00
2019-04-11T12:31:05.511Z,9.00
2019-04-11T12:32:06.246Z,9.00
2019-04-11T12:33:05.798Z,8.94
2019-04-11T12:34:06.020Z,8.94
2019-04-11T12:35:06.137Z,9.06
2019-04-11T12:36:05.725Z,9.62
2019-04-11T12:37:06.183Z,9.62
2019-04-11T12:38:05.374Z,9.75
2019-04-11T12:39:05.531Z,9.50
2019-04-11T12:40:05.617Z,9.38
2019-04-11T12:41:05.995Z,9.38
2019-04-11T12:42:05.462Z,9.31
2019-04-11T12:43:05.446Z,9.19
2019-04-11T12:44:05.933Z,9.12
2019-04-11T12:45:06.494Z,9.06
2019-04-11T12:46:06.246Z,9.06
2019-04-11T12:47:07.756Z,9.31
2019-04-11T12:48:05.604Z,9.19
2019-04-11T12:49:05.833Z,9.19
2019-04-11T12:50:05.121Z,9.19
2019-04-11T12:51:05.552Z,9.06
2019-04-11T12:52:05.520Z,9.00
2019-04-11T12:53:06.093Z,9.06
2019-04-11T12:54:05.396Z,8.94
2019-04-11T12:55:05.937Z,8.81
2019-04-11T12:56:05.124Z,8.88
2019-04-11T12:57:05.973Z,8.94
2019-04-11T12:58:05.939Z,9.00
2019-04-11T12:59:05.471Z,9.12
2019-04-11T13:00:05.689Z,9.19
2019-04-11T13:01:05.902Z,9.06
2019-04-11T13:02:05.432Z,9.12
2019-04-11T13:03:05.215Z,9.06
2019-04-11T13:04:05.535Z,8.94
2019-04-11T13:05:05.687Z,8.81
2019-04-11T13:06:06.008Z,8.69
2019-04-11T13:07:06.519Z,8.62
2019-04-11T13:08:05.915Z,8.62
2019-04-11T13:09:05.431Z,8.81
2019-04-11T13:10:05.770Z,8.75
2019-04-11T13:11:05.206Z,8.69
2019-04-11T13:12:05.590Z,8.62
2019-04-11T13:13:05.310Z,8.50
2019-04-11T13:14:05.340Z,8.44
2019-04-11T13:15:05.908Z,8.44
2019-04-11T13:16:11.710Z,8.50
2019-04-11T13:17:05.220Z,8.44
2019-04-11T13:18:05.790Z,8.44
2019-04-11T13:19:05.926Z,8.50
2019-04-11T13:20:05.339Z,8.50
2019-04-11T13:21:05.849Z,8.44
2019-04-11T13:22:05.522Z,8.44